sensor_id;sensor_type;location;lat;lon;timestamp;P1;durP1;ratioP1;P2;durP2;ratioP2
34433;SDS011;34290;48.562;13.384;2023-01-25T00:01:59;17.83;;;8.07;;
34433;SDS011;34290;48.562;13.384;2023-01-25T00:04:27;20.37;;;8.90;;
34433;SDS011;34290;48.562;13.384;2023-01-25T00:06:54;18.30;;;7.77;;
34433;SDS011;34290;48.562;13.384;2023-01-25T00:09:21;19.27;;;9.03;;
34433;SDS011;34290;48.562;13.384;2023-01-25T00:11:49;20.37;;;8.20;;
34433;SDS011;34290;48.562;13.384;2023-01-25T00:14:19;22.63;;;9.07;;
34433;SDS011;34290;48.562;13.384;2023-01-25T00:16:46;19.93;;;8.57;;
34433;SDS011;34290;48.562;13.384;2023-01-25T00:19:13;24.13;;;9.47;;
34433;SDS011;34290;48.562;13.384;2023-01-25T00:21:40;20.73;;;9.17;;
34433;SDS011;34290;48.562;13.384;2023-01-25T00:24:07;21.70;;;8.80;;
34433;SDS011;34290;48.562;13.384;2023-01-25T00:26:36;27.93;;;10.20;;
34433;SDS011;34290;48.562;13.384;2023-01-25T00:29:03;20.77;;;8.77;;
34433;SDS011;34290;48.562;13.384;2023-01-25T00:31:36;25.47;;;9.40;;
34433;SDS011;34290;48.562;13.384;2023-01-25T00:34:28;19.27;;;8.50;;
34433;SDS011;34290;48.562;13.384;2023-01-25T00:37:11;21.33;;;8.60;;
34433;SDS011;34290;48.562;13.384;2023-01-25T00:39:43;28.40;;;9.47;;
34433;SDS011;34290;48.562;13.384;2023-01-25T00:42:11;23.33;;;8.73;;
34433;SDS011;34290;48.562;13.384;2023-01-25T00:44:38;27.50;;;8.93;;
34433;SDS011;34290;48.562;13.384;2023-01-25T00:47:07;23.77;;;8.97;;
34433;SDS011;34290;48.562;13.384;2023-01-25T00:49:34;23.03;;;8.83;;
34433;SDS011;34290;48.562;13.384;2023-01-25T00:52:02;24.00;;;9.10;;
34433;SDS011;34290;48.562;13.384;2023-01-25T00:54:29;18.40;;;8.37;;
34433;SDS011;34290;48.562;13.384;2023-01-25T00:56:56;21.37;;;9.03;;
34433;SDS011;34290;48.562;13.384;2023-01-25T00:59:23;22.83;;;8.77;;
34433;SDS011;34290;48.562;13.384;2023-01-25T01:01:51;26.63;;;10.03;;
34433;SDS011;34290;48.562;13.384;2023-01-25T01:04:20;22.30;;;9.07;;
34433;SDS011;34290;48.562;13.384;2023-01-25T01:06:49;23.43;;;9.37;;
34433;SDS011;34290;48.562;13.384;2023-01-25T01:09:17;24.47;;;9.57;;
34433;SDS011;34290;48.562;13.384;2023-01-25T01:11:45;24.30;;;9.67;;
34433;SDS011;34290;48.562;13.384;2023-01-25T01:14:12;27.80;;;9.77;;
34433;SDS011;34290;48.562;13.384;2023-01-25T01:16:39;23.97;;;9.53;;
34433;SDS011;34290;48.562;13.384;2023-01-25T01:19:06;19.43;;;8.80;;
34433;SDS011;34290;48.562;13.384;2023-01-25T01:21:35;21.97;;;9.07;;
34433;SDS011;34290;48.562;13.384;2023-01-25T01:24:02;30.47;;;9.57;;
34433;SDS011;34290;48.562;13.384;2023-01-25T01:26:29;25.00;;;9.53;;
34433;SDS011;34290;48.562;13.384;2023-01-25T01:28:56;20.17;;;8.67;;
34433;SDS011;34290;48.562;13.384;2023-01-25T01:31:23;20.87;;;9.13;;
34433;SDS011;34290;48.562;13.384;2023-01-25T01:33:51;21.77;;;8.97;;
34433;SDS011;34290;48.562;13.384;2023-01-25T01:36:20;23.53;;;9.53;;
34433;SDS011;34290;48.562;13.384;2023-01-25T01:38:49;21.37;;;9.00;;
34433;SDS011;34290;48.562;13.384;2023-01-25T01:41:16;27.00;;;10.70;;
34433;SDS011;34290;48.562;13.384;2023-01-25T01:43:44;27.30;;;10.20;;
34433;SDS011;34290;48.562;13.384;2023-01-25T01:46:12;24.20;;;10.10;;
34433;SDS011;34290;48.562;13.384;2023-01-25T01:48:46;24.23;;;9.63;;
34433;SDS011;34290;48.562;13.384;2023-01-25T01:51:17;23.60;;;9.77;;
34433;SDS011;34290;48.562;13.384;2023-01-25T01:53:47;21.20;;;8.20;;
34433;SDS011;34290;48.562;13.384;2023-01-25T01:56:20;22.23;;;8.60;;
34433;SDS011;34290;48.562;13.384;2023-01-25T01:58:54;23.33;;;9.07;;
34433;SDS011;34290;48.562;13.384;2023-01-25T02:01:24;22.07;;;8.93;;
34433;SDS011;34290;48.562;13.384;2023-01-25T02:03:51;24.37;;;8.83;;
34433;SDS011;34290;48.562;13.384;2023-01-25T02:06:20;22.67;;;8.67;;
34433;SDS011;34290;48.562;13.384;2023-01-25T02:08:55;22.63;;;8.97;;
34433;SDS011;34290;48.562;13.384;2023-01-25T02:11:23;23.87;;;8.73;;
34433;SDS011;34290;48.562;13.384;2023-01-25T02:13:52;21.57;;;8.40;;
34433;SDS011;34290;48.562;13.384;2023-01-25T02:16:21;22.00;;;8.93;;
34433;SDS011;34290;48.562;13.384;2023-01-25T02:18:51;23.83;;;9.83;;
34433;SDS011;34290;48.562;13.384;2023-01-25T02:21:19;27.17;;;9.37;;
34433;SDS011;34290;48.562;13.384;2023-01-25T02:23:49;22.70;;;9.50;;
34433;SDS011;34290;48.562;13.384;2023-01-25T02:26:20;25.97;;;9.37;;
34433;SDS011;34290;48.562;13.384;2023-01-25T02:28:49;20.80;;;9.63;;
34433;SDS011;34290;48.562;13.384;2023-01-25T02:31:21;26.20;;;9.57;;
34433;SDS011;34290;48.562;13.384;2023-01-25T02:33:48;21.53;;;8.60;;
34433;SDS011;34290;48.562;13.384;2023-01-25T02:36:16;24.10;;;9.60;;
34433;SDS011;34290;48.562;13.384;2023-01-25T02:38:49;21.00;;;8.37;;
34433;SDS011;34290;48.562;13.384;2023-01-25T02:41:22;24.80;;;8.97;;
34433;SDS011;34290;48.562;13.384;2023-01-25T02:43:53;24.57;;;9.13;;
34433;SDS011;34290;48.562;13.384;2023-01-25T02:46:21;21.93;;;8.73;;
34433;SDS011;34290;48.562;13.384;2023-01-25T02:48:52;22.73;;;9.23;;
34433;SDS011;34290;48.562;13.384;2023-01-25T02:51:20;22.33;;;8.83;;
34433;SDS011;34290;48.562;13.384;2023-01-25T02:53:48;23.60;;;9.13;;
34433;SDS011;34290;48.562;13.384;2023-01-25T02:56:15;21.93;;;8.43;;
34433;SDS011;34290;48.562;13.384;2023-01-25T02:58:44;23.67;;;9.27;;
34433;SDS011;34290;48.562;13.384;2023-01-25T03:01:11;20.10;;;8.10;;
34433;SDS011;34290;48.562;13.384;2023-01-25T03:03:39;19.40;;;8.03;;
34433;SDS011;34290;48.562;13.384;2023-01-25T03:06:07;21.53;;;7.93;;
34433;SDS011;34290;48.562;13.384;2023-01-25T03:08:34;22.00;;;6.63;;
34433;SDS011;34290;48.562;13.384;2023-01-25T03:11:03;17.63;;;7.33;;
34433;SDS011;34290;48.562;13.384;2023-01-25T03:13:31;20.73;;;8.60;;
34433;SDS011;34290;48.562;13.384;2023-01-25T03:16:03;21.67;;;8.67;;
34433;SDS011;34290;48.562;13.384;2023-01-25T03:18:32;22.57;;;8.60;;
34433;SDS011;34290;48.562;13.384;2023-01-25T03:21:06;25.17;;;9.17;;
34433;SDS011;34290;48.562;13.384;2023-01-25T03:23:34;22.10;;;9.00;;
34433;SDS011;34290;48.562;13.384;2023-01-25T03:26:09;25.10;;;9.27;;
34433;SDS011;34290;48.562;13.384;2023-01-25T03:28:38;19.97;;;7.80;;
34433;SDS011;34290;48.562;13.384;2023-01-25T03:31:08;26.63;;;8.83;;
34433;SDS011;34290;48.562;13.384;2023-01-25T03:33:37;18.00;;;7.37;;
34433;SDS011;34290;48.562;13.384;2023-01-25T03:36:05;23.43;;;8.73;;
34433;SDS011;34290;48.562;13.384;2023-01-25T03:38:32;20.57;;;8.33;;
34433;SDS011;34290;48.562;13.384;2023-01-25T03:41:00;18.90;;;8.47;;
34433;SDS011;34290;48.562;13.384;2023-01-25T03:43:27;13.90;;;5.50;;
34433;SDS011;34290;48.562;13.384;2023-01-25T03:45:56;17.20;;;7.03;;
34433;SDS011;34290;48.562;13.384;2023-01-25T03:48:26;17.77;;;7.47;;
34433;SDS011;34290;48.562;13.384;2023-01-25T03:50:54;21.43;;;8.33;;
34433;SDS011;34290;48.562;13.384;2023-01-25T03:53:22;21.83;;;8.40;;
34433;SDS011;34290;48.562;13.384;2023-01-25T03:55:55;20.70;;;8.67;;
34433;SDS011;34290;48.562;13.384;2023-01-25T03:58:22;22.30;;;8.93;;
34433;SDS011;34290;48.562;13.384;2023-01-25T04:00:50;20.20;;;8.07;;
34433;SDS011;34290;48.562;13.384;2023-01-25T04:03:17;22.80;;;8.47;;
34433;SDS011;34290;48.562;13.384;2023-01-25T04:05:47;17.67;;;7.97;;
34433;SDS011;34290;48.562;13.384;2023-01-25T04:08:14;21.83;;;8.40;;
34433;SDS011;34290;48.562;13.384;2023-01-25T04:10:41;24.73;;;9.37;;
34433;SDS011;34290;48.562;13.384;2023-01-25T04:13:09;20.23;;;7.60;;
34433;SDS011;34290;48.562;13.384;2023-01-25T04:15:36;23.43;;;8.70;;
34433;SDS011;34290;48.562;13.384;2023-01-25T04:18:04;20.67;;;8.50;;
34433;SDS011;34290;48.562;13.384;2023-01-25T04:20:31;19.20;;;8.53;;
34433;SDS011;34290;48.562;13.384;2023-01-25T04:22:59;20.20;;;8.43;;
34433;SDS011;34290;48.562;13.384;2023-01-25T04:25:26;22.47;;;8.53;;
34433;SDS011;34290;48.562;13.384;2023-01-25T04:27:53;23.20;;;8.73;;
34433;SDS011;34290;48.562;13.384;2023-01-25T04:30:20;22.70;;;9.43;;
34433;SDS011;34290;48.562;13.384;2023-01-25T04:32:47;23.13;;;8.97;;
34433;SDS011;34290;48.562;13.384;2023-01-25T04:35:14;21.30;;;8.47;;
34433;SDS011;34290;48.562;13.384;2023-01-25T04:37:41;24.43;;;9.57;;
34433;SDS011;34290;48.562;13.384;2023-01-25T04:40:10;25.33;;;9.37;;
34433;SDS011;34290;48.562;13.384;2023-01-25T04:42:37;21.67;;;9.10;;
34433;SDS011;34290;48.562;13.384;2023-01-25T04:45:04;21.83;;;9.07;;
34433;SDS011;34290;48.562;13.384;2023-01-25T04:47:32;28.87;;;9.30;;
34433;SDS011;34290;48.562;13.384;2023-01-25T04:49:59;23.90;;;9.50;;
34433;SDS011;34290;48.562;13.384;2023-01-25T04:52:26;22.97;;;8.97;;
34433;SDS011;34290;48.562;13.384;2023-01-25T04:54:53;21.23;;;8.40;;
34433;SDS011;34290;48.562;13.384;2023-01-25T04:57:22;21.30;;;9.17;;
34433;SDS011;34290;48.562;13.384;2023-01-25T04:59:49;27.23;;;9.37;;
34433;SDS011;34290;48.562;13.384;2023-01-25T05:02:16;24.13;;;8.63;;
34433;SDS011;34290;48.562;13.384;2023-01-25T05:04:43;25.13;;;9.13;;
34433;SDS011;34290;48.562;13.384;2023-01-25T05:07:10;23.17;;;9.00;;
34433;SDS011;34290;48.562;13.384;2023-01-25T05:09:37;21.23;;;8.77;;
34433;SDS011;34290;48.562;13.384;2023-01-25T05:12:07;20.80;;;8.57;;
34433;SDS011;34290;48.562;13.384;2023-01-25T05:14:39;22.20;;;9.43;;
34433;SDS011;34290;48.562;13.384;2023-01-25T05:17:06;23.67;;;9.60;;
34433;SDS011;34290;48.562;13.384;2023-01-25T05:19:34;23.23;;;8.80;;
34433;SDS011;34290;48.562;13.384;2023-01-25T05:22:02;20.97;;;8.33;;
34433;SDS011;34290;48.562;13.384;2023-01-25T05:24:32;25.73;;;9.00;;
34433;SDS011;34290;48.562;13.384;2023-01-25T05:27:00;24.27;;;9.57;;
34433;SDS011;34290;48.562;13.384;2023-01-25T05:29:30;23.90;;;9.07;;
34433;SDS011;34290;48.562;13.384;2023-01-25T05:32:02;21.47;;;9.53;;
34433;SDS011;34290;48.562;13.384;2023-01-25T05:34:30;22.10;;;8.37;;
34433;SDS011;34290;48.562;13.384;2023-01-25T05:36:58;22.40;;;9.20;;
34433;SDS011;34290;48.562;13.384;2023-01-25T05:39:25;23.60;;;9.27;;
34433;SDS011;34290;48.562;13.384;2023-01-25T05:41:52;23.73;;;9.07;;
34433;SDS011;34290;48.562;13.384;2023-01-25T05:44:19;18.33;;;8.57;;
34433;SDS011;34290;48.562;13.384;2023-01-25T05:46:46;23.37;;;9.17;;
34433;SDS011;34290;48.562;13.384;2023-01-25T05:49:15;25.43;;;9.83;;
34433;SDS011;34290;48.562;13.384;2023-01-25T05:51:42;22.10;;;8.10;;
34433;SDS011;34290;48.562;13.384;2023-01-25T05:54:10;26.47;;;9.53;;
34433;SDS011;34290;48.562;13.384;2023-01-25T05:56:39;26.03;;;9.77;;
34433;SDS011;34290;48.562;13.384;2023-01-25T05:59:06;23.03;;;9.27;;
34433;SDS011;34290;48.562;13.384;2023-01-25T06:01:35;24.23;;;10.70;;
34433;SDS011;34290;48.562;13.384;2023-01-25T06:04:02;28.47;;;9.90;;
34433;SDS011;34290;48.562;13.384;2023-01-25T06:06:30;23.13;;;9.43;;
34433;SDS011;34290;48.562;13.384;2023-01-25T06:08:57;28.13;;;10.73;;
34433;SDS011;34290;48.562;13.384;2023-01-25T06:11:26;26.53;;;10.53;;
34433;SDS011;34290;48.562;13.384;2023-01-25T06:13:53;29.43;;;10.97;;
34433;SDS011;34290;48.562;13.384;2023-01-25T06:16:20;29.83;;;11.57;;
34433;SDS011;34290;48.562;13.384;2023-01-25T06:18:47;29.43;;;11.23;;
34433;SDS011;34290;48.562;13.384;2023-01-25T06:21:14;28.57;;;11.03;;
34433;SDS011;34290;48.562;13.384;2023-01-25T06:23:42;26.90;;;10.57;;
34433;SDS011;34290;48.562;13.384;2023-01-25T06:26:10;24.47;;;9.63;;
34433;SDS011;34290;48.562;13.384;2023-01-25T06:28:39;29.33;;;11.07;;
34433;SDS011;34290;48.562;13.384;2023-01-25T06:31:06;28.30;;;11.30;;
34433;SDS011;34290;48.562;13.384;2023-01-25T06:33:35;25.17;;;9.77;;
34433;SDS011;34290;48.562;13.384;2023-01-25T06:36:02;27.40;;;10.00;;
34433;SDS011;34290;48.562;13.384;2023-01-25T06:38:31;30.07;;;10.77;;
34433;SDS011;34290;48.562;13.384;2023-01-25T06:41:00;27.33;;;10.57;;
34433;SDS011;34290;48.562;13.384;2023-01-25T06:43:27;33.27;;;11.97;;
34433;SDS011;34290;48.562;13.384;2023-01-25T06:45:58;31.80;;;11.37;;
34433;SDS011;34290;48.562;13.384;2023-01-25T06:48:26;27.70;;;10.53;;
34433;SDS011;34290;48.562;13.384;2023-01-25T06:50:54;28.50;;;11.30;;
34433;SDS011;34290;48.562;13.384;2023-01-25T06:53:23;32.40;;;11.87;;
34433;SDS011;34290;48.562;13.384;2023-01-25T06:55:57;31.70;;;12.43;;
34433;SDS011;34290;48.562;13.384;2023-01-25T06:58:27;28.53;;;10.90;;
34433;SDS011;34290;48.562;13.384;2023-01-25T07:00:58;27.80;;;11.20;;
34433;SDS011;34290;48.562;13.384;2023-01-25T07:03:26;33.50;;;10.67;;
34433;SDS011;34290;48.562;13.384;2023-01-25T07:05:56;28.23;;;11.37;;
34433;SDS011;34290;48.562;13.384;2023-01-25T07:08:24;28.20;;;11.80;;
34433;SDS011;34290;48.562;13.384;2023-01-25T07:10:54;29.63;;;11.23;;
34433;SDS011;34290;48.562;13.384;2023-01-25T07:13:24;29.77;;;11.03;;
34433;SDS011;34290;48.562;13.384;2023-01-25T07:15:52;35.70;;;12.23;;
34433;SDS011;34290;48.562;13.384;2023-01-25T07:18:20;28.40;;;11.67;;
34433;SDS011;34290;48.562;13.384;2023-01-25T07:20:47;29.90;;;10.97;;
34433;SDS011;34290;48.562;13.384;2023-01-25T07:23:14;31.77;;;11.83;;
34433;SDS011;34290;48.562;13.384;2023-01-25T07:25:44;29.67;;;10.43;;
34433;SDS011;34290;48.562;13.384;2023-01-25T07:28:11;30.67;;;11.60;;
34433;SDS011;34290;48.562;13.384;2023-01-25T07:30:40;34.60;;;10.70;;
34433;SDS011;34290;48.562;13.384;2023-01-25T07:33:07;27.60;;;10.20;;
34433;SDS011;34290;48.562;13.384;2023-01-25T07:35:35;31.03;;;11.57;;
34433;SDS011;34290;48.562;13.384;2023-01-25T07:38:03;28.40;;;10.67;;
34433;SDS011;34290;48.562;13.384;2023-01-25T07:40:30;24.60;;;9.37;;
34433;SDS011;34290;48.562;13.384;2023-01-25T07:42:57;30.90;;;10.10;;
34433;SDS011;34290;48.562;13.384;2023-01-25T07:45:24;28.23;;;9.97;;
34433;SDS011;34290;48.562;13.384;2023-01-25T07:47:56;29.87;;;10.13;;
34433;SDS011;34290;48.562;13.384;2023-01-25T07:50:23;30.17;;;11.97;;
34433;SDS011;34290;48.562;13.384;2023-01-25T07:52:50;31.83;;;11.07;;
34433;SDS011;34290;48.562;13.384;2023-01-25T07:55:18;30.27;;;12.10;;
34433;SDS011;34290;48.562;13.384;2023-01-25T07:57:45;32.13;;;11.10;;
34433;SDS011;34290;48.562;13.384;2023-01-25T08:00:12;29.97;;;11.27;;
34433;SDS011;34290;48.562;13.384;2023-01-25T08:02:39;26.77;;;10.63;;
34433;SDS011;34290;48.562;13.384;2023-01-25T08:05:11;36.03;;;10.90;;
34433;SDS011;34290;48.562;13.384;2023-01-25T08:07:38;26.13;;;9.97;;
34433;SDS011;34290;48.562;13.384;2023-01-25T08:10:05;22.10;;;9.00;;
34433;SDS011;34290;48.562;13.384;2023-01-25T08:12:32;30.00;;;10.10;;
34433;SDS011;34290;48.562;13.384;2023-01-25T08:15:03;28.93;;;10.97;;
34433;SDS011;34290;48.562;13.384;2023-01-25T08:17:30;30.43;;;11.20;;
34433;SDS011;34290;48.562;13.384;2023-01-25T08:19:57;30.53;;;10.77;;
34433;SDS011;34290;48.562;13.384;2023-01-25T08:22:27;30.20;;;11.07;;
34433;SDS011;34290;48.562;13.384;2023-01-25T08:24:54;33.03;;;12.50;;
34433;SDS011;34290;48.562;13.384;2023-01-25T08:27:21;32.63;;;12.70;;
34433;SDS011;34290;48.562;13.384;2023-01-25T08:29:48;30.57;;;11.03;;
34433;SDS011;34290;48.562;13.384;2023-01-25T08:32:19;28.60;;;11.70;;
34433;SDS011;34290;48.562;13.384;2023-01-25T08:34:46;31.93;;;11.30;;
34433;SDS011;34290;48.562;13.384;2023-01-25T08:37:13;30.40;;;10.87;;
34433;SDS011;34290;48.562;13.384;2023-01-25T08:39:41;26.63;;;10.33;;
34433;SDS011;34290;48.562;13.384;2023-01-25T08:42:08;33.83;;;11.60;;
34433;SDS011;34290;48.562;13.384;2023-01-25T08:44:35;27.03;;;11.23;;
34433;SDS011;34290;48.562;13.384;2023-01-25T08:47:02;30.90;;;11.27;;
34433;SDS011;34290;48.562;13.384;2023-01-25T08:49:29;31.97;;;11.50;;
34433;SDS011;34290;48.562;13.384;2023-01-25T08:51:58;28.80;;;11.00;;
34433;SDS011;34290;48.562;13.384;2023-01-25T08:54:25;33.77;;;11.97;;
34433;SDS011;34290;48.562;13.384;2023-01-25T08:56:54;35.07;;;13.30;;
34433;SDS011;34290;48.562;13.384;2023-01-25T08:59:21;32.20;;;12.03;;
34433;SDS011;34290;48.562;13.384;2023-01-25T09:01:48;32.17;;;10.93;;
34433;SDS011;34290;48.562;13.384;2023-01-25T09:04:15;33.93;;;11.17;;
34433;SDS011;34290;48.562;13.384;2023-01-25T09:06:43;30.80;;;10.97;;
34433;SDS011;34290;48.562;13.384;2023-01-25T09:09:11;25.63;;;9.53;;
34433;SDS011;34290;48.562;13.384;2023-01-25T09:11:38;33.97;;;11.77;;
34433;SDS011;34290;48.562;13.384;2023-01-25T09:14:10;34.77;;;11.60;;
34433;SDS011;34290;48.562;13.384;2023-01-25T09:16:38;33.43;;;11.17;;
34433;SDS011;34290;48.562;13.384;2023-01-25T09:19:06;33.07;;;11.67;;
34433;SDS011;34290;48.562;13.384;2023-01-25T09:21:34;24.43;;;9.83;;
34433;SDS011;34290;48.562;13.384;2023-01-25T09:24:01;23.83;;;9.83;;
34433;SDS011;34290;48.562;13.384;2023-01-25T09:26:28;30.53;;;10.87;;
34433;SDS011;34290;48.562;13.384;2023-01-25T09:28:56;34.33;;;12.17;;
34433;SDS011;34290;48.562;13.384;2023-01-25T09:31:24;38.73;;;12.07;;
34433;SDS011;34290;48.562;13.384;2023-01-25T09:33:51;33.10;;;12.43;;
34433;SDS011;34290;48.562;13.384;2023-01-25T09:36:18;33.40;;;11.87;;
34433;SDS011;34290;48.562;13.384;2023-01-25T09:38:45;33.50;;;11.67;;
34433;SDS011;34290;48.562;13.384;2023-01-25T09:41:28;32.30;;;11.27;;
34433;SDS011;34290;48.562;13.384;2023-01-25T09:44:14;31.70;;;11.40;;
34433;SDS011;34290;48.562;13.384;2023-01-25T09:46:55;30.23;;;12.27;;
34433;SDS011;34290;48.562;13.384;2023-01-25T09:49:28;36.27;;;13.00;;
34433;SDS011;34290;48.562;13.384;2023-01-25T09:52:11;32.37;;;12.27;;
34433;SDS011;34290;48.562;13.384;2023-01-25T09:54:54;31.87;;;10.70;;
34433;SDS011;34290;48.562;13.384;2023-01-25T09:57:23;23.43;;;8.23;;
34433;SDS011;34290;48.562;13.384;2023-01-25T09:59:56;31.97;;;11.17;;
34433;SDS011;34290;48.562;13.384;2023-01-25T10:02:30;28.57;;;10.87;;
34433;SDS011;34290;48.562;13.384;2023-01-25T10:05:05;28.20;;;10.77;;
34433;SDS011;34290;48.562;13.384;2023-01-25T10:07:40;30.07;;;11.40;;
34433;SDS011;34290;48.562;13.384;2023-01-25T10:10:17;33.83;;;12.30;;
34433;SDS011;34290;48.562;13.384;2023-01-25T10:12:48;32.00;;;11.43;;
34433;SDS011;34290;48.562;13.384;2023-01-25T10:15:17;34.10;;;11.83;;
34433;SDS011;34290;48.562;13.384;2023-01-25T10:17:47;29.10;;;11.10;;
34433;SDS011;34290;48.562;13.384;2023-01-25T10:20:25;30.37;;;10.77;;
34433;SDS011;34290;48.562;13.384;2023-01-25T10:25:56;28.63;;;9.87;;
34433;SDS011;34290;48.562;13.384;2023-01-25T10:28:29;31.00;;;11.57;;
34433;SDS011;34290;48.562;13.384;2023-01-25T10:31:05;35.30;;;11.30;;
34433;SDS011;34290;48.562;13.384;2023-01-25T10:33:38;26.00;;;11.27;;
34433;SDS011;34290;48.562;13.384;2023-01-25T10:36:09;31.53;;;12.20;;
34433;SDS011;34290;48.562;13.384;2023-01-25T10:38:40;28.63;;;11.80;;
34433;SDS011;34290;48.562;13.384;2023-01-25T10:41:09;33.93;;;11.57;;
34433;SDS011;34290;48.562;13.384;2023-01-25T10:43:41;31.40;;;11.27;;
34433;SDS011;34290;48.562;13.384;2023-01-25T10:46:15;30.57;;;9.83;;
34433;SDS011;34290;48.562;13.384;2023-01-25T10:48:46;31.53;;;10.83;;
34433;SDS011;34290;48.562;13.384;2023-01-25T10:54:04;39.40;;;12.13;;
34433;SDS011;34290;48.562;13.384;2023-01-25T10:56:39;36.37;;;12.57;;
34433;SDS011;34290;48.562;13.384;2023-01-25T10:59:14;27.20;;;10.50;;
34433;SDS011;34290;48.562;13.384;2023-01-25T11:01:43;34.07;;;12.17;;
34433;SDS011;34290;48.562;13.384;2023-01-25T11:04:31;35.87;;;12.13;;
34433;SDS011;34290;48.562;13.384;2023-01-25T11:07:00;24.40;;;8.83;;
34433;SDS011;34290;48.562;13.384;2023-01-25T11:09:36;31.43;;;11.87;;
34433;SDS011;34290;48.562;13.384;2023-01-25T11:12:05;34.10;;;12.97;;
34433;SDS011;34290;48.562;13.384;2023-01-25T11:14:43;33.77;;;12.73;;
34433;SDS011;34290;48.562;13.384;2023-01-25T11:17:21;34.97;;;11.53;;
34433;SDS011;34290;48.562;13.384;2023-01-25T11:22:47;32.67;;;10.53;;
34433;SDS011;34290;48.562;13.384;2023-01-25T11:25:26;30.80;;;11.60;;
34433;SDS011;34290;48.562;13.384;2023-01-25T11:28:13;32.40;;;12.57;;
34433;SDS011;34290;48.562;13.384;2023-01-25T11:30:42;37.37;;;12.67;;
34433;SDS011;34290;48.562;13.384;2023-01-25T11:33:10;31.60;;;11.77;;
34433;SDS011;34290;48.562;13.384;2023-01-25T11:35:42;30.30;;;12.03;;
34433;SDS011;34290;48.562;13.384;2023-01-25T11:38:30;27.13;;;10.70;;
34433;SDS011;34290;48.562;13.384;2023-01-25T11:40:59;36.40;;;12.23;;
34433;SDS011;34290;48.562;13.384;2023-01-25T11:43:41;37.90;;;12.13;;
34433;SDS011;34290;48.562;13.384;2023-01-25T11:46:38;32.50;;;11.40;;
34433;SDS011;34290;48.562;13.384;2023-01-25T11:49:17;34.57;;;12.63;;
34433;SDS011;34290;48.562;13.384;2023-01-25T11:51:55;33.30;;;12.07;;
34433;SDS011;34290;48.562;13.384;2023-01-25T11:54:34;33.07;;;11.90;;
34433;SDS011;34290;48.562;13.384;2023-01-25T11:57:22;30.90;;;11.50;;
34433;SDS011;34290;48.562;13.384;2023-01-25T12:00:00;35.60;;;12.87;;
34433;SDS011;34290;48.562;13.384;2023-01-25T12:03:06;33.53;;;12.20;;
34433;SDS011;34290;48.562;13.384;2023-01-25T12:05:50;30.90;;;12.07;;
34433;SDS011;34290;48.562;13.384;2023-01-25T12:08:37;39.57;;;13.47;;
34433;SDS011;34290;48.562;13.384;2023-01-25T12:11:22;35.57;;;12.13;;
34433;SDS011;34290;48.562;13.384;2023-01-25T12:14:08;33.13;;;11.93;;
34433;SDS011;34290;48.562;13.384;2023-01-25T12:16:49;34.37;;;12.10;;
34433;SDS011;34290;48.562;13.384;2023-01-25T12:19:28;34.23;;;11.50;;
34433;SDS011;34290;48.562;13.384;2023-01-25T12:22:19;35.67;;;12.53;;
34433;SDS011;34290;48.562;13.384;2023-01-25T12:25:02;32.03;;;11.87;;
34433;SDS011;34290;48.562;13.384;2023-01-25T12:27:44;35.33;;;12.60;;
34433;SDS011;34290;48.562;13.384;2023-01-25T12:30:24;30.77;;;11.23;;
34433;SDS011;34290;48.562;13.384;2023-01-25T12:33:00;33.90;;;13.27;;
34433;SDS011;34290;48.562;13.384;2023-01-25T12:35:33;30.83;;;11.53;;
34433;SDS011;34290;48.562;13.384;2023-01-25T12:38:07;39.97;;;12.77;;
34433;SDS011;34290;48.562;13.384;2023-01-25T12:40:42;32.63;;;12.40;;
34433;SDS011;34290;48.562;13.384;2023-01-25T12:43:15;33.60;;;12.67;;
34433;SDS011;34290;48.562;13.384;2023-01-25T12:45:46;39.83;;;13.47;;
34433;SDS011;34290;48.562;13.384;2023-01-25T12:48:17;37.93;;;14.03;;
34433;SDS011;34290;48.562;13.384;2023-01-25T12:50:49;35.23;;;12.00;;
34433;SDS011;34290;48.562;13.384;2023-01-25T12:53:20;35.60;;;11.77;;
34433;SDS011;34290;48.562;13.384;2023-01-25T12:55:51;35.40;;;12.20;;
34433;SDS011;34290;48.562;13.384;2023-01-25T12:58:21;31.50;;;12.10;;
34433;SDS011;34290;48.562;13.384;2023-01-25T13:00:55;34.27;;;12.43;;
34433;SDS011;34290;48.562;13.384;2023-01-25T13:03:29;39.17;;;12.67;;
34433;SDS011;34290;48.562;13.384;2023-01-25T13:06:03;36.70;;;11.77;;
34433;SDS011;34290;48.562;13.384;2023-01-25T13:08:46;37.67;;;12.63;;
34433;SDS011;34290;48.562;13.384;2023-01-25T13:11:22;33.80;;;13.00;;
34433;SDS011;34290;48.562;13.384;2023-01-25T13:13:52;35.93;;;12.63;;
34433;SDS011;34290;48.562;13.384;2023-01-25T13:16:39;36.87;;;12.50;;
34433;SDS011;34290;48.562;13.384;2023-01-25T13:19:17;35.40;;;12.10;;
34433;SDS011;34290;48.562;13.384;2023-01-25T13:21:46;34.70;;;11.67;;
34433;SDS011;34290;48.562;13.384;2023-01-25T13:24:15;40.33;;;12.20;;
34433;SDS011;34290;48.562;13.384;2023-01-25T13:26:50;32.63;;;11.60;;
34433;SDS011;34290;48.562;13.384;2023-01-25T13:35:37;33.37;;;10.87;;
34433;SDS011;34290;48.562;13.384;2023-01-25T13:38:20;32.53;;;12.03;;
34433;SDS011;34290;48.562;13.384;2023-01-25T13:41:08;32.93;;;11.60;;
34433;SDS011;34290;48.562;13.384;2023-01-25T13:43:43;32.83;;;11.30;;
34433;SDS011;34290;48.562;13.384;2023-01-25T13:46:14;34.43;;;12.67;;
34433;SDS011;34290;48.562;13.384;2023-01-25T13:48:45;40.27;;;12.83;;
34433;SDS011;34290;48.562;13.384;2023-01-25T13:51:20;32.43;;;12.07;;
34433;SDS011;34290;48.562;13.384;2023-01-25T13:53:56;33.40;;;11.87;;
34433;SDS011;34290;48.562;13.384;2023-01-25T13:56:26;33.17;;;12.27;;
34433;SDS011;34290;48.562;13.384;2023-01-25T13:58:56;34.20;;;12.33;;
34433;SDS011;34290;48.562;13.384;2023-01-25T14:01:23;29.50;;;10.73;;
34433;SDS011;34290;48.562;13.384;2023-01-25T14:03:51;29.30;;;12.10;;
34433;SDS011;34290;48.562;13.384;2023-01-25T14:06:23;35.20;;;11.93;;
34433;SDS011;34290;48.562;13.384;2023-01-25T14:08:52;29.73;;;11.33;;
34433;SDS011;34290;48.562;13.384;2023-01-25T14:11:22;37.63;;;12.17;;
34433;SDS011;34290;48.562;13.384;2023-01-25T14:13:56;35.80;;;12.67;;
34433;SDS011;34290;48.562;13.384;2023-01-25T14:16:25;32.73;;;11.40;;
34433;SDS011;34290;48.562;13.384;2023-01-25T14:18:54;37.83;;;12.97;;
34433;SDS011;34290;48.562;13.384;2023-01-25T14:21:22;33.70;;;11.23;;
34433;SDS011;34290;48.562;13.384;2023-01-25T14:23:49;33.67;;;11.80;;
34433;SDS011;34290;48.562;13.384;2023-01-25T14:26:18;35.93;;;12.30;;
34433;SDS011;34290;48.562;13.384;2023-01-25T14:28:49;104.73;;;29.63;;
34433;SDS011;34290;48.562;13.384;2023-01-25T14:31:21;33.00;;;11.80;;
34433;SDS011;34290;48.562;13.384;2023-01-25T14:33:49;32.07;;;11.17;;
34433;SDS011;34290;48.562;13.384;2023-01-25T14:36:22;32.27;;;11.90;;
34433;SDS011;34290;48.562;13.384;2023-01-25T14:38:52;28.77;;;10.87;;
34433;SDS011;34290;48.562;13.384;2023-01-25T14:41:21;33.40;;;11.77;;
34433;SDS011;34290;48.562;13.384;2023-01-25T14:43:52;31.70;;;11.23;;
34433;SDS011;34290;48.562;13.384;2023-01-25T14:49:16;31.60;;;10.93;;
34433;SDS011;34290;48.562;13.384;2023-01-25T14:51:50;31.30;;;11.40;;